Meteo Giornale » Osservazioni meteo Stati Uniti (USA) » Davis-Monthan
ore: 10:42 - Osservazioni Meteo Davis-Monthan
Lat. 32° 10' N Lon. 110° 53' W Alt. 824 metri s.l.m.
24 °C
Temporale
Temp. 24 Ore
21 °C
37 °C
Ovest
27.8 Km/h
Dew point 20 °C
Umidità 78 %
Visibilità 10 Km
Il sole sorge alle ore 05:58
Il sole tramonta alle ore 18:49
| Data e Ora | Cielo e Fenomeni | T °C | DP °C | Um. % | Pres. hPa | Vis. km | Vento km/h | |
|---|---|---|---|---|---|---|---|---|
| Oggi h: 10:42 | Temporale | 24 | 20 | 78 | 1020 | 10 | O 27.8 | |
| Oggi h: 10:27 | Temporale nelle vicinanze | 24 | 20 | 78 | 1020 | 10 | O/NO 29.6 | |
| Oggi h: 10:19 | Temporale nelle vicinanze | 24 | 20 | 78 | 1020 | 10 | O 24 | |
| Oggi h: 09:55 | Coperto | 25 | 20 | 73 | 1019 | 10 | O 20.3 | |
| Oggi h: 08:55 | Nuvoloso | 26 | 19 | 65 | 1018 | 10 | N 0 | |
| Oggi h: 07:55 | Sereno | 23 | 20 | 83 | 1018 | 10 | S/SE 14.8 | |
| Oggi h: 06:55 | Sereno | 22 | 19 | 83 | 1017 | 10 | E/SE 9.3 | |
| Oggi h: 06:03 | Temporale nelle vicinanze | 22 | 19 | 83 | 1017 | 10 | NO 18.5 | |
| Oggi h: 05:58 | Temporale nelle vicinanze Pioviggine | 22 | 20 | 88 | 1017 | 10 | NO 18.5 | |
| Oggi h: 05:55 | Molto Nuvoloso | 21 | 20 | 94 | 1017 | 10 | NO 18.5 | |
| Oggi h: 05:53 | Molto Nuvoloso | 21 | 20 | 94 | 1017 | 10 | NO 24 | |
| Oggi h: 05:15 | Temporale | 22 | 19 | 83 | 1018 | 5 | NO 20.3 | |
| Oggi h: 05:10 | Temporale | 22 | 20 | 88 | 1018 | 2 | O/NO 22.2 | |
| Oggi h: 04:55 | Temporale | 22 | 19 | 83 | 1017 | 10 | O 14.8 | |
| Oggi h: 04:45 | Temporale | 22 | 19 | 83 | 1017 | 10 | O 22.2 | |
| Oggi h: 04:44 | Temporale | 22 | 19 | 83 | 1017 | 10 | O 22.2 | |
| Oggi h: 04:30 | Temporale | 23 | 19 | 78 | 1016 | 10 | O/SO 37 | |
| Oggi h: 04:24 | Temporale | 23 | 19 | 78 | 1016 | 10 | O/SO 40.7 | |
| Oggi h: 04:07 | Temporale nelle vicinanze | 27 | 17 | 54 | 1016 | 10 | O/SO 42.6 | |
| Oggi h: 03:57 | Temporale nelle vicinanze | 28 | 16 | 48 | 1016 | 10 | S 9.3 | |
| Oggi h: 03:55 | Poco Nuvoloso | 28 | 16 | 48 | 1015 | 10 | S/SE 13 | |
| Oggi h: 02:55 | Sereno | 28 | 16 | 48 | 1014 | 10 | E/SE 13 | |
| Oggi h: 01:55 | Sereno | 29 | 16 | 45 | 1015 | 10 | N 0 | |
| Oggi h: 00:55 | Sereno | 30 | 16 | 42 | 1015 | 10 | N 0 | |
| Ieri h: 23:55 | Coperto | 30 | 16 | 42 | 1015 | 10 | N 0 | |
| Ieri h: 22:55 | Poco Nuvoloso | 31 | 16 | 40 | 1015 | 10 | N 0 | |
| Ieri h: 21:55 | Coperto | 32 | 15 | 35 | 1015 | 10 | SO 7.4 | |
| Ieri h: 21:08 | Temporale nelle vicinanze | 32 | 16 | 38 | 1015 | 10 | O 20.3 | |
| Ieri h: 20:55 | Nuvoloso | 32 | 16 | 38 | 1014 | 10 | O 16.7 | |
| Ieri h: 19:55 | Coperto | 34 | 15 | 32 | 1013 | 10 | O 22.2 | |
| Ieri h: 18:55 | Sereno | 35 | 13 | 26 | 1012 | 10 | O 11.1 | |
| Ieri h: 17:55 | Sereno | 36 | 13 | 25 | 1011 | 10 | O/NO 9.3 | |
| Ieri h: 16:55 | Sereno | 37 | 14 | 25 | 1012 | 10 | O/SO 14.8 | |
| Ieri h: 15:55 | Sereno | 37 | 14 | 25 | 1012 | 10 | NO 13 | |
| Ieri h: 14:55 | Sereno | 37 | 13 | 23 | 1014 | 10 | N 0 | |
| Ieri h: 13:55 | Sereno | 36 | 13 | 25 | 1015 | 10 | O 9.3 | |
| Ieri h: 12:55 | Sereno | 36 | 14 | 26 | 1016 | 10 | SO 11.1 | |
| Ieri h: 11:55 | Sereno | 35 | 14 | 28 | 1017 | 10 | S 11.1 | |



